SILO ALERT LOG


Silo ID Alert Type Alert Message Silo Type Points Depth (mm) Strength Temperature (°C) Humidity (%) Height (mm) Volume (㎥) Weight (t) Flag Time
DJHNR12 Humidity 습도센서 측정값이 80% 초과 호퍼 0 10500 0 3.1 81.9 -120 0 0 31 2024-01-12 10:39:23.000
DJHNR03 Temperature 온도센서 상태 이상 호퍼 0 15500 0 -999 -999 -119 0 0 31 2024-01-12 10:39:23.000
DJDJD03 Humidity 습도센서 측정값이 80% 초과 60 5131 5029 2.7 80.4 2548 308.709 195.166 0 2024-01-12 09:39:40.000
DJSAD03 Humidity 습도센서 측정값이 80% 초과 449 1630 6193 2.9 84.5 7149 295.954 187.102 0 2024-01-12 09:39:39.000
DJSAD01 Humidity 습도센서 측정값이 80% 초과 454 1484 7343 1.7 88.1 7295 301.994 190.921 0 2024-01-12 09:39:39.000
DJSAD05 Humidity 습도센서 측정값이 80% 초과 492 890 15250 1.8 80.2 7889 326.59 206.47 11 2024-01-12 09:39:38.000
DJSAD02 Humidity 습도센서 측정값이 80% 초과 380 1132 4275 2.5 87.5 7647 316.565 200.132 11 2024-01-12 09:39:38.000
DJSAD11 Humidity 습도센서 측정값이 80% 초과 339 1631 3296 1.4 80.2 5948 846.438 535.118 11 2024-01-12 09:39:36.000
DJSAD16 Humidity 습도센서 측정값이 80% 초과 91 6278 3388 4.3 80.7 1301 129.601 81.934 11 2024-01-12 09:39:33.000
DJHNR01 Humidity 습도센서 측정값이 80% 초과 호퍼 471 4315 4854 6.5 99.9 11064 472.261 298.563 13 2024-01-12 09:39:33.000
DJSAD12 Humidity 습도센서 측정값이 80% 초과 0 7700 0 4.8 84.1 -120 -17.075 0 31 2024-01-12 09:39:33.000
DJSSD05 Temperature 온도센서 측정값이 0도 미만 834 2548 4868 -45.4 43.5 5531 769.813 486.676 0 2024-01-12 09:39:33.000
DJSSD04 Temperature 온도센서 상태 이상 0 8200 0 -999 -999 -120 -16.702 0 31 2024-01-12 09:39:33.000
DJSSD01 Humidity 습도센서 측정값이 80% 초과 793 2559 4679 5.6 83.6 5520 768.409 485.788 0 2024-01-12 09:39:33.000
DJSAD08 Humidity 습도센서 측정값이 80% 초과 621 2311 4605 8.8 83.5 5268 749.601 473.898 0 2024-01-12 09:39:32.000
DJDJD04 Humidity 습도센서 측정값이 80% 초과 279 4197 4447 3.2 81.9 3482 421.907 266.73 11 2024-01-12 09:39:32.000
DJSSD09 Temperature 온도센서 측정값이 0도 미만 119 2893 3452 -45.4 0 4786 666.223 421.186 11 2024-01-12 09:39:32.000
DJHNR11 Temperature 온도센서 측정값이 0도 미만 호퍼 308 3299 916 -1.2 75.7 7080 98.784 62.451 11 2024-01-12 09:39:32.000
DJSAD18 Humidity 습도센서 측정값이 80% 초과 116 1399 5835 4.7 80.8 6180 615.405 389.059 11 2024-01-12 09:39:30.000
DJDJD01 Humidity 습도센서 측정값이 80% 초과 306 6845 6040 1.6 80.5 834 101.053 63.886 11 2024-01-12 09:39:30.000

[첫 페이지] [9981] [9982] [9983] [9984] 9985 [9986] [9987] [9988] [9989] [마지막 페이지]